createdAt,value
2023-01-31T00:01:40.139Z,2.53
2023-01-31T00:04:11.808Z,2.40
2023-01-31T00:06:41.889Z,2.20
2023-01-31T00:09:11.657Z,2.30
2023-01-31T00:11:38.602Z,2.70
2023-01-31T00:14:06.534Z,2.58
2023-01-31T00:16:34.040Z,2.33
2023-01-31T00:19:01.005Z,2.47
2023-01-31T00:21:30.018Z,2.03
2023-01-31T00:23:58.199Z,2.55
2023-01-31T00:31:21.770Z,2.35
2023-01-31T00:33:49.734Z,2.20
2023-01-31T00:36:25.955Z,2.50
2023-01-31T00:38:54.708Z,2.15
2023-01-31T00:41:23.006Z,2.50
2023-01-31T00:46:20.448Z,2.15
2023-01-31T00:48:47.955Z,2.30
2023-01-31T00:51:15.056Z,2.50
2023-01-31T00:53:44.359Z,2.17
2023-01-31T00:56:16.551Z,2.35
2023-01-31T00:58:43.376Z,2.20
2023-01-31T01:01:11.260Z,2.38
2023-01-31T01:03:39.193Z,2.13
2023-01-31T01:06:07.069Z,2.20
2023-01-31T01:08:35.439Z,2.38
2023-01-31T01:11:10.557Z,2.20
2023-01-31T01:13:37.967Z,1.95
2023-01-31T01:16:13.742Z,2.30
2023-01-31T01:18:40.925Z,1.90
2023-01-31T01:21:09.826Z,2.15
2023-01-31T01:23:37.998Z,2.15
2023-01-31T01:28:37.722Z,2.13
2023-01-31T01:31:09.368Z,2.10
2023-01-31T01:33:37.079Z,2.28
2023-01-31T01:36:05.739Z,2.00
2023-01-31T01:38:35.531Z,2.00
2023-01-31T01:41:03.391Z,2.13
2023-01-31T01:43:40.367Z,2.03
2023-01-31T01:46:08.703Z,2.25
2023-01-31T01:48:36.306Z,1.90
2023-01-31T01:51:06.659Z,2.05
2023-01-31T01:53:37.360Z,2.30
2023-01-31T01:56:10.089Z,2.13
2023-01-31T01:58:56.910Z,2.20
2023-01-31T02:01:26.571Z,2.10
2023-01-31T02:03:53.679Z,2.00
2023-01-31T02:06:21.718Z,1.90
2023-01-31T02:08:49.098Z,2.20
2023-01-31T02:11:28.533Z,2.47
2023-01-31T02:14:03.210Z,2.05
2023-01-31T02:16:30.117Z,2.30
2023-01-31T02:18:57.810Z,1.90
2023-01-31T02:21:37.034Z,1.90
2023-01-31T02:24:30.841Z,1.80
2023-01-31T02:27:15.623Z,2.13
2023-01-31T02:30:03.719Z,2.25
2023-01-31T02:32:46.815Z,1.98
2023-01-31T02:35:25.729Z,2.08
2023-01-31T02:37:57.849Z,1.67
2023-01-31T02:40:33.910Z,1.95
2023-01-31T02:43:22.714Z,2.25
2023-01-31T02:46:02.492Z,2.00
2023-01-31T02:48:34.873Z,2.00
2023-01-31T02:51:29.918Z,2.20
2023-01-31T02:54:20.131Z,1.90
2023-01-31T02:56:49.222Z,2.17
2023-01-31T02:59:25.783Z,2.10
2023-01-31T03:02:01.921Z,2.00
2023-01-31T03:04:33.612Z,1.98
2023-01-31T03:07:29.425Z,2.33
2023-01-31T03:09:56.107Z,2.13
2023-01-31T03:12:48.061Z,2.30
2023-01-31T03:15:54.779Z,2.00
2023-01-31T03:18:27.164Z,1.90
2023-01-31T03:21:03.157Z,2.03
2023-01-31T03:23:33.434Z,2.13
2023-01-31T03:26:03.387Z,1.85
2023-01-31T03:28:32.706Z,2.22
2023-01-31T03:31:10.930Z,2.10
2023-01-31T03:33:51.198Z,1.80
2023-01-31T03:36:38.175Z,2.20
2023-01-31T03:39:38.316Z,1.55
2023-01-31T03:42:09.351Z,2.00
2023-01-31T03:44:52.021Z,1.90
2023-01-31T03:47:31.203Z,2.33
2023-01-31T03:50:08.694Z,2.10
2023-01-31T03:52:41.360Z,2.20
2023-01-31T03:55:14.990Z,2.20
2023-01-31T03:57:43.504Z,2.20
2023-01-31T04:00:15.164Z,2.00
2023-01-31T04:02:43.733Z,2.03
2023-01-31T04:05:18.620Z,1.90
2023-01-31T04:07:45.788Z,1.90
2023-01-31T04:10:19.928Z,2.13
2023-01-31T04:12:47.341Z,2.30
2023-01-31T04:15:16.028Z,1.93
2023-01-31T04:17:42.784Z,2.08
2023-01-31T04:20:10.892Z,2.05
2023-01-31T04:25:08.004Z,2.10
2023-01-31T04:27:34.802Z,1.90
2023-01-31T04:30:01.587Z,2.00
2023-01-31T04:32:28.654Z,1.98
2023-01-31T04:34:55.393Z,1.90
2023-01-31T04:37:22.200Z,2.00
2023-01-31T04:39:49.547Z,1.80
2023-01-31T04:42:16.455Z,1.90
2023-01-31T04:44:43.235Z,1.90
2023-01-31T04:47:10.119Z,1.98
2023-01-31T04:49:36.913Z,2.47
2023-01-31T04:52:03.780Z,1.95
2023-01-31T04:54:30.681Z,1.77
2023-01-31T04:56:59.717Z,1.88
2023-01-31T04:59:26.488Z,2.00
2023-01-31T05:01:53.270Z,2.00
2023-01-31T05:04:22.100Z,1.80
2023-01-31T05:06:49.092Z,1.90
2023-01-31T05:09:16.623Z,1.98
2023-01-31T05:11:43.540Z,1.80
2023-01-31T05:14:10.360Z,2.00
2023-01-31T05:16:37.668Z,1.80
2023-01-31T05:19:04.448Z,1.57
2023-01-31T05:21:51.166Z,1.90
2023-01-31T05:24:17.907Z,1.77
2023-01-31T05:26:44.785Z,1.98
2023-01-31T05:29:11.609Z,1.90
2023-01-31T05:31:38.950Z,1.88
2023-01-31T05:34:10.218Z,1.73
2023-01-31T05:36:37.548Z,2.10
2023-01-31T05:39:04.363Z,1.90
2023-01-31T05:41:31.602Z,1.70
2023-01-31T05:43:58.355Z,1.60
2023-01-31T05:46:25.682Z,1.88
2023-01-31T05:48:52.892Z,1.90
2023-01-31T05:51:20.136Z,1.95
2023-01-31T05:53:49.447Z,1.60
2023-01-31T05:56:16.707Z,2.00
2023-01-31T05:58:43.522Z,1.85
2023-01-31T06:01:10.314Z,1.90
2023-01-31T06:03:42.106Z,1.85
2023-01-31T06:06:08.891Z,1.83
2023-01-31T06:08:35.689Z,2.03
2023-01-31T06:11:05.894Z,1.80
2023-01-31T06:13:33.151Z,1.80
2023-01-31T06:16:00.813Z,1.83
2023-01-31T06:18:27.702Z,1.73
2023-01-31T06:20:54.549Z,2.03
2023-01-31T06:23:21.499Z,2.65
2023-01-31T06:25:52.642Z,2.97
2023-01-31T06:28:20.010Z,2.63
2023-01-31T06:30:47.046Z,2.20
2023-01-31T06:33:14.755Z,2.30
2023-01-31T06:35:42.019Z,3.42
2023-01-31T06:38:09.080Z,2.83
2023-01-31T06:40:36.596Z,2.53
2023-01-31T06:43:03.922Z,2.60
2023-01-31T06:45:31.846Z,3.43
2023-01-31T06:47:59.144Z,2.92
2023-01-31T06:50:25.905Z,3.47
2023-01-31T06:52:52.653Z,3.22
2023-01-31T06:55:22.582Z,2.90
2023-01-31T06:57:50.808Z,3.13
2023-01-31T07:02:46.909Z,3.17
2023-01-31T07:07:41.479Z,3.22
2023-01-31T07:10:09.562Z,3.90
2023-01-31T07:12:36.860Z,3.40
2023-01-31T07:15:03.944Z,3.10
2023-01-31T07:17:31.354Z,3.65
2023-01-31T07:19:58.641Z,3.40
2023-01-31T07:22:25.664Z,3.10
2023-01-31T07:24:53.023Z,3.10
2023-01-31T07:27:19.782Z,2.90
2023-01-31T07:29:47.087Z,2.90
2023-01-31T07:32:14.041Z,3.10
2023-01-31T07:34:43.158Z,3.13
2023-01-31T07:37:10.598Z,3.00
2023-01-31T07:39:37.880Z,2.60
2023-01-31T07:42:04.796Z,2.90
2023-01-31T07:44:32.030Z,3.92
2023-01-31T07:46:58.931Z,3.23
2023-01-31T07:49:25.738Z,4.18
2023-01-31T07:51:53.061Z,4.07
2023-01-31T07:54:19.884Z,4.20
2023-01-31T07:56:48.917Z,3.72
2023-01-31T07:59:17.246Z,3.90
2023-01-31T08:02:02.626Z,3.70
2023-01-31T08:04:30.456Z,3.90
2023-01-31T08:09:27.164Z,3.72
2023-01-31T08:11:53.978Z,3.63
2023-01-31T08:14:25.520Z,3.22
2023-01-31T08:16:53.223Z,3.60
2023-01-31T08:19:20.510Z,3.17
2023-01-31T08:21:47.712Z,3.80
2023-01-31T08:24:15.055Z,4.00
2023-01-31T08:26:45.476Z,3.40
2023-01-31T08:29:13.014Z,3.60
2023-01-31T08:31:41.222Z,3.20
2023-01-31T08:34:08.563Z,3.53
2023-01-31T08:36:36.171Z,3.13
2023-01-31T08:39:04.135Z,3.25
2023-01-31T08:41:33.547Z,3.30
2023-01-31T08:44:04.807Z,3.60
2023-01-31T08:46:34.726Z,3.58
2023-01-31T08:49:04.575Z,3.42
2023-01-31T08:51:31.623Z,3.80
2023-01-31T08:53:58.465Z,3.83
2023-01-31T08:56:26.307Z,3.67
2023-01-31T08:58:55.037Z,5.28
2023-01-31T09:01:23.128Z,4.05
2023-01-31T09:06:27.054Z,4.55
2023-01-31T09:08:56.361Z,4.30
2023-01-31T09:11:23.610Z,4.50
2023-01-31T09:13:51.698Z,4.60
2023-01-31T09:16:20.184Z,4.40
2023-01-31T09:18:49.773Z,4.47
2023-01-31T09:21:20.923Z,5.53
2023-01-31T09:23:49.321Z,5.90
2023-01-31T09:26:17.046Z,5.72
2023-01-31T09:28:45.325Z,5.50
2023-01-31T09:31:15.562Z,5.05
2023-01-31T09:33:43.241Z,5.28
2023-01-31T09:36:12.913Z,6.00
2023-01-31T09:38:40.435Z,5.22
2023-01-31T09:41:23.559Z,5.35
2023-01-31T09:43:56.742Z,5.75
2023-01-31T09:46:29.843Z,5.38
2023-01-31T09:49:01.120Z,6.07
2023-01-31T09:51:29.557Z,5.40
2023-01-31T09:53:57.703Z,5.57
2023-01-31T09:56:46.151Z,5.78
2023-01-31T09:59:23.897Z,5.20
2023-01-31T10:02:33.594Z,6.13
2023-01-31T10:05:13.935Z,5.78
2023-01-31T10:08:11.981Z,5.30
2023-01-31T10:10:43.580Z,5.82
2023-01-31T10:13:29.742Z,5.30
2023-01-31T10:16:13.884Z,5.57
2023-01-31T10:18:48.238Z,5.90
2023-01-31T10:21:23.148Z,5.85
2023-01-31T10:24:05.732Z,5.18
2023-01-31T10:26:37.705Z,5.68
2023-01-31T10:29:29.453Z,5.85
2023-01-31T10:31:58.855Z,5.50
2023-01-31T10:34:38.721Z,5.72
2023-01-31T10:37:08.921Z,5.72
2023-01-31T10:39:47.140Z,5.82
2023-01-31T10:42:32.967Z,6.03
2023-01-31T10:45:08.926Z,6.38
2023-01-31T10:47:46.648Z,7.68
2023-01-31T10:50:39.421Z,6.65
2023-01-31T10:53:21.715Z,6.50
2023-01-31T10:56:07.870Z,7.28
2023-01-31T10:58:35.606Z,6.80
2023-01-31T11:01:14.598Z,6.28
2023-01-31T11:03:50.113Z,5.82
2023-01-31T11:06:18.151Z,6.28
2023-01-31T11:08:57.498Z,6.57
2023-01-31T11:11:26.467Z,6.55
2023-01-31T11:14:03.499Z,6.43
2023-01-31T11:16:38.809Z,5.97
2023-01-31T11:19:26.248Z,6.25
2023-01-31T11:21:54.164Z,5.82
2023-01-31T11:24:29.928Z,6.10
2023-01-31T11:27:08.110Z,5.80
2023-01-31T11:29:43.529Z,5.80
2023-01-31T11:32:23.549Z,5.68
2023-01-31T11:35:18.338Z,5.43
2023-01-31T11:37:58.477Z,5.25
2023-01-31T11:40:32.955Z,5.10
2023-01-31T11:43:24.054Z,5.03
2023-01-31T11:46:02.586Z,5.03
2023-01-31T11:48:39.586Z,4.60
2023-01-31T11:51:06.989Z,5.45
2023-01-31T11:53:49.391Z,5.10
2023-01-31T11:56:29.489Z,5.05
2023-01-31T11:59:04.217Z,6.40
2023-01-31T12:01:31.720Z,9.32
2023-01-31T12:04:07.249Z,8.00
2023-01-31T12:06:37.205Z,8.30
2023-01-31T12:09:18.198Z,7.32
2023-01-31T12:11:57.328Z,9.52
2023-01-31T12:14:35.800Z,8.63
2023-01-31T12:17:02.985Z,9.00
2023-01-31T12:19:57.475Z,8.68
2023-01-31T12:22:36.121Z,9.40
2023-01-31T12:25:23.247Z,8.60
2023-01-31T12:28:20.667Z,8.13
2023-01-31T12:31:11.957Z,8.43
2023-01-31T12:34:04.385Z,8.35
2023-01-31T12:37:01.020Z,8.10
2023-01-31T12:42:33.594Z,7.80
2023-01-31T12:45:16.387Z,6.90
2023-01-31T12:47:46.811Z,7.70
2023-01-31T12:50:22.836Z,7.57
2023-01-31T12:53:25.721Z,7.75
2023-01-31T12:56:08.565Z,8.02
2023-01-31T12:58:44.986Z,7.57
2023-01-31T13:01:36.539Z,7.03
2023-01-31T13:04:25.845Z,7.00
2023-01-31T13:07:01.092Z,6.97
2023-01-31T13:09:32.975Z,6.75
2023-01-31T13:12:10.227Z,6.97
2023-01-31T13:14:45.686Z,6.65
2023-01-31T13:17:17.149Z,6.40
2023-01-31T13:19:54.666Z,6.57
2023-01-31T13:22:34.533Z,7.07
2023-01-31T13:25:24.673Z,6.13
2023-01-31T13:28:00.854Z,6.03
2023-01-31T13:30:45.581Z,6.35
2023-01-31T13:33:28.506Z,6.45
2023-01-31T13:36:09.089Z,6.00
2023-01-31T13:38:44.593Z,5.90
2023-01-31T13:41:32.340Z,6.20
2023-01-31T13:44:01.861Z,6.53
2023-01-31T13:46:38.776Z,6.13
2023-01-31T13:49:07.394Z,6.13
2023-01-31T13:51:55.187Z,6.30
2023-01-31T13:54:51.243Z,6.13
2023-01-31T13:57:30.559Z,6.00
2023-01-31T14:00:18.736Z,5.93
2023-01-31T14:03:07.691Z,6.20
2023-01-31T14:05:44.626Z,5.55
2023-01-31T14:08:45.748Z,5.95
2023-01-31T14:11:19.051Z,5.68
2023-01-31T14:13:47.799Z,5.55
2023-01-31T14:16:39.515Z,5.40
2023-01-31T14:19:24.070Z,5.40
2023-01-31T14:22:13.780Z,5.38
2023-01-31T14:24:49.648Z,5.50
2023-01-31T14:27:22.586Z,5.22
2023-01-31T14:30:34.210Z,5.38
2023-01-31T14:33:00.952Z,5.18
2023-01-31T14:35:43.045Z,5.03
2023-01-31T14:38:13.170Z,4.93
2023-01-31T14:40:55.602Z,4.63
2023-01-31T14:43:52.870Z,4.63
2023-01-31T14:46:35.176Z,4.57
2023-01-31T14:49:08.652Z,4.72
2023-01-31T14:51:59.472Z,4.28
2023-01-31T14:54:40.426Z,4.10
2023-01-31T14:57:21.625Z,4.32
2023-01-31T15:00:02.432Z,4.20
2023-01-31T15:02:32.840Z,4.35
2023-01-31T15:05:34.506Z,4.50
2023-01-31T15:08:28.111Z,4.40
2023-01-31T15:11:06.054Z,4.28
2023-01-31T15:13:45.053Z,4.50
2023-01-31T15:16:23.498Z,4.20
2023-01-31T15:19:11.806Z,3.80
2023-01-31T15:21:54.414Z,4.10
2023-01-31T15:24:31.113Z,4.43
2023-01-31T15:26:59.295Z,4.38
2023-01-31T15:32:03.192Z,4.68
2023-01-31T15:34:33.438Z,5.15
2023-01-31T15:37:08.950Z,4.82
2023-01-31T15:39:52.750Z,5.28
2023-01-31T15:42:24.496Z,4.68
2023-01-31T15:44:52.258Z,4.75
2023-01-31T15:47:23.447Z,5.03
2023-01-31T15:49:50.272Z,4.40
2023-01-31T15:52:22.521Z,4.50
2023-01-31T15:54:58.871Z,4.50
2023-01-31T15:57:31.256Z,5.55
2023-01-31T15:59:58.390Z,4.63
2023-01-31T16:02:33.331Z,5.13
2023-01-31T16:05:04.622Z,4.32
2023-01-31T16:07:31.960Z,4.82
2023-01-31T16:10:02.050Z,4.27
2023-01-31T16:12:31.113Z,4.22
2023-01-31T16:15:02.885Z,4.55
2023-01-31T16:17:30.258Z,4.63
2023-01-31T16:19:58.308Z,4.47
2023-01-31T16:22:26.941Z,4.22
2023-01-31T16:24:55.761Z,4.28
2023-01-31T16:27:23.217Z,4.00
2023-01-31T16:29:57.664Z,3.63
2023-01-31T16:32:28.324Z,3.40
2023-01-31T16:34:55.284Z,3.47
2023-01-31T16:37:34.300Z,3.40
2023-01-31T16:40:25.884Z,3.38
2023-01-31T16:43:18.691Z,3.22
2023-01-31T16:45:52.758Z,3.17
2023-01-31T16:48:24.761Z,3.40
2023-01-31T16:50:53.666Z,2.85
2023-01-31T16:53:41.607Z,3.03
2023-01-31T16:58:46.844Z,2.90
2023-01-31T17:01:17.712Z,2.88
2023-01-31T17:03:45.025Z,2.50
2023-01-31T17:06:20.808Z,2.72
2023-01-31T17:08:47.808Z,2.45
2023-01-31T17:11:34.190Z,2.47
2023-01-31T17:14:04.141Z,2.50
2023-01-31T17:16:30.939Z,2.38
2023-01-31T17:18:57.717Z,2.40
2023-01-31T17:21:26.627Z,2.70
2023-01-31T17:23:53.882Z,2.30
2023-01-31T17:26:22.807Z,2.10
2023-01-31T17:29:00.776Z,2.00
2023-01-31T17:31:29.644Z,2.00
2023-01-31T17:33:56.944Z,2.17
2023-01-31T17:36:24.061Z,2.00
2023-01-31T17:38:52.666Z,1.95
2023-01-31T17:41:23.300Z,1.92
2023-01-31T17:43:50.883Z,1.92
2023-01-31T17:46:21.380Z,1.83
2023-01-31T17:48:48.225Z,1.98
2023-01-31T17:51:15.655Z,1.98
2023-01-31T17:53:50.022Z,1.92
2023-01-31T17:56:18.965Z,1.83
2023-01-31T17:58:46.803Z,1.77
2023-01-31T18:01:14.416Z,1.95
2023-01-31T18:03:42.695Z,3.20
2023-01-31T18:08:37.698Z,4.35
2023-01-31T18:11:10.451Z,5.23
2023-01-31T18:13:38.491Z,4.30
2023-01-31T18:16:08.174Z,4.18
2023-01-31T18:18:40.604Z,3.97
2023-01-31T18:21:12.755Z,4.30
2023-01-31T18:23:39.527Z,4.18
2023-01-31T18:26:08.080Z,4.03
2023-01-31T18:28:35.532Z,4.30
2023-01-31T18:31:04.675Z,4.38
2023-01-31T18:33:32.757Z,4.93
2023-01-31T18:36:00.743Z,4.63
2023-01-31T18:38:32.694Z,4.10
2023-01-31T18:41:01.704Z,4.40
2023-01-31T18:43:30.409Z,4.15
2023-01-31T18:45:57.266Z,4.80
2023-01-31T18:48:24.345Z,4.68
2023-01-31T18:50:51.151Z,3.90
2023-01-31T18:53:17.969Z,4.32
2023-01-31T18:55:45.192Z,4.10
2023-01-31T18:58:12.582Z,4.05
2023-01-31T19:00:39.449Z,4.25
2023-01-31T19:03:06.306Z,4.38
2023-01-31T19:05:33.625Z,3.78
2023-01-31T19:08:00.393Z,3.90
2023-01-31T19:10:27.808Z,4.60
2023-01-31T19:12:55.062Z,4.25
2023-01-31T19:15:22.247Z,4.57
2023-01-31T19:17:49.266Z,5.53
2023-01-31T19:20:16.683Z,5.38
2023-01-31T19:22:43.963Z,4.88
2023-01-31T19:25:11.136Z,5.13
2023-01-31T19:27:40.487Z,4.70
2023-01-31T19:30:07.875Z,4.78
2023-01-31T19:32:35.364Z,4.90
2023-01-31T19:35:02.915Z,4.18
2023-01-31T19:37:29.879Z,4.68
2023-01-31T19:39:56.741Z,4.20
2023-01-31T19:42:23.763Z,4.43
2023-01-31T19:44:51.146Z,4.18
2023-01-31T19:47:18.446Z,3.87
2023-01-31T19:49:45.730Z,4.07
2023-01-31T19:52:12.988Z,3.80
2023-01-31T20:07:19.810Z,7.32
2023-01-31T20:09:46.678Z,7.47
2023-01-31T20:12:13.598Z,7.53
2023-01-31T20:14:40.572Z,7.40
2023-01-31T20:17:07.588Z,6.93
2023-01-31T20:19:34.482Z,7.10
2023-01-31T20:22:02.086Z,7.38
2023-01-31T20:24:29.914Z,7.45
2023-01-31T20:26:57.741Z,6.45
2023-01-31T20:29:25.878Z,6.75
2023-01-31T20:31:53.064Z,7.10
2023-01-31T20:34:20.074Z,6.73
2023-01-31T20:36:47.166Z,6.90
2023-01-31T20:39:14.371Z,6.20
2023-01-31T20:41:41.181Z,6.27
2023-01-31T20:44:08.026Z,6.53
2023-01-31T20:46:34.786Z,6.40
2023-01-31T20:49:02.117Z,6.15
2023-01-31T20:51:29.226Z,6.95
2023-01-31T20:53:56.131Z,6.32
2023-01-31T20:56:23.653Z,6.75
2023-01-31T20:58:50.599Z,7.47
2023-01-31T21:01:17.699Z,5.70
2023-01-31T21:03:44.643Z,5.97
2023-01-31T21:06:11.549Z,5.80
2023-01-31T21:08:40.050Z,5.82
2023-01-31T21:11:09.927Z,6.57
2023-01-31T21:13:37.486Z,6.00
2023-01-31T21:16:07.682Z,5.95
2023-01-31T21:18:39.247Z,5.57
2023-01-31T21:21:12.386Z,6.10
2023-01-31T21:23:40.302Z,5.45
2023-01-31T21:26:09.882Z,5.70
2023-01-31T21:28:37.672Z,6.07
2023-01-31T21:31:12.737Z,5.70
2023-01-31T21:33:39.772Z,5.55
2023-01-31T21:36:11.760Z,6.20
2023-01-31T21:38:39.767Z,5.22
2023-01-31T21:43:52.737Z,5.38
2023-01-31T21:46:19.618Z,5.72
2023-01-31T21:48:46.700Z,5.60
2023-01-31T21:51:18.650Z,5.60
2023-01-31T21:53:46.185Z,5.05
2023-01-31T21:56:16.334Z,5.30
2023-01-31T21:58:44.484Z,4.88
2023-01-31T22:01:17.859Z,5.60
2023-01-31T22:03:48.232Z,5.13
2023-01-31T22:06:17.539Z,5.15
2023-01-31T22:08:45.399Z,4.90
2023-01-31T22:11:15.641Z,5.07
2023-01-31T22:13:50.204Z,5.00
2023-01-31T22:16:20.814Z,5.10
2023-01-31T22:18:49.143Z,5.10
2023-01-31T22:21:21.690Z,4.97
2023-01-31T22:23:51.323Z,4.47
2023-01-31T22:26:29.306Z,4.80
2023-01-31T22:29:01.258Z,4.97
2023-01-31T22:31:30.107Z,4.60
2023-01-31T22:33:57.792Z,4.65
2023-01-31T22:36:24.830Z,4.85
2023-01-31T22:38:52.524Z,4.85
2023-01-31T22:41:20.364Z,4.82
2023-01-31T22:43:49.966Z,4.30
2023-01-31T22:46:25.333Z,5.30
2023-01-31T22:48:52.920Z,4.45
2023-01-31T22:51:26.726Z,4.93
2023-01-31T22:53:57.156Z,4.38
2023-01-31T22:56:27.415Z,4.35
2023-01-31T22:58:59.426Z,4.72
2023-01-31T23:01:30.126Z,4.22
2023-01-31T23:03:59.892Z,3.72
2023-01-31T23:06:30.506Z,4.80
2023-01-31T23:08:57.853Z,4.30
2023-01-31T23:11:25.670Z,4.68
2023-01-31T23:13:53.136Z,4.22
2023-01-31T23:16:44.419Z,4.22
2023-01-31T23:19:12.552Z,4.13
2023-01-31T23:21:43.758Z,4.53
2023-01-31T23:24:20.183Z,4.20
2023-01-31T23:26:47.532Z,4.10
2023-01-31T23:29:14.503Z,4.45
2023-01-31T23:31:41.871Z,4.55
2023-01-31T23:34:09.322Z,4.38
2023-01-31T23:36:36.557Z,3.83
2023-01-31T23:39:04.685Z,3.97
2023-01-31T23:43:59.139Z,4.05
2023-01-31T23:46:26.517Z,3.90
2023-01-31T23:48:53.481Z,4.28
2023-01-31T23:51:20.304Z,4.22
2023-01-31T23:53:47.189Z,3.85
2023-01-31T23:56:14.385Z,4.00
2023-01-31T23:58:41.547Z,3.90
